Terminal Aerodrome Forecast
Issued by NWS

Home | Current Version | Previous Version | Text Only | Print | Product List | Glossary On
Versions: 1 2 3 4 5 6 7 8 9 10 11 12 13 14 15
712
FTUS43 KDLH 301903 AAA
TAFHYR
TAF AMD
KHYR 301903Z 3019/0118 02014G22KT P6SM SCT040
     FM010300 06010KT P6SM SKC
     FM011400 02010KT P6SM SCT050=

USA.gov is the U.S. government's official web portal to all federal, state and local government web resources and services.